sensor_id;sensor_type;location;lat;lon;timestamp;temperature;humidity
47482;DHT22;33219;47.410;9.730;2023-02-28T00:01:21;-2.30;99.90
47482;DHT22;33219;47.410;9.730;2023-02-28T00:03:49;-2.20;99.90
47482;DHT22;33219;47.410;9.730;2023-02-28T00:06:17;-2.30;99.90
47482;DHT22;33219;47.410;9.730;2023-02-28T00:08:44;-2.30;99.90
47482;DHT22;33219;47.410;9.730;2023-02-28T00:11:14;-2.40;99.90
47482;DHT22;33219;47.410;9.730;2023-02-28T00:13:44;-2.40;99.90
47482;DHT22;33219;47.410;9.730;2023-02-28T00:16:18;-2.40;99.90
47482;DHT22;33219;47.410;9.730;2023-02-28T00:18:46;-2.30;99.90
47482;DHT22;33219;47.410;9.730;2023-02-28T00:21:18;-2.20;99.90
47482;DHT22;33219;47.410;9.730;2023-02-28T00:23:46;-2.10;99.90
47482;DHT22;33219;47.410;9.730;2023-02-28T00:26:14;-2.00;99.90
47482;DHT22;33219;47.410;9.730;2023-02-28T00:28:42;-2.00;99.90
47482;DHT22;33219;47.410;9.730;2023-02-28T00:31:09;-2.00;99.90
47482;DHT22;33219;47.410;9.730;2023-02-28T00:33:37;-2.00;99.90
47482;DHT22;33219;47.410;9.730;2023-02-28T00:36:07;-1.90;99.90
47482;DHT22;33219;47.410;9.730;2023-02-28T00:38:35;-1.90;99.90
47482;DHT22;33219;47.410;9.730;2023-02-28T00:41:03;-1.90;99.90
47482;DHT22;33219;47.410;9.730;2023-02-28T00:43:34;-1.90;99.90
47482;DHT22;33219;47.410;9.730;2023-02-28T00:46:03;-1.90;99.90
47482;DHT22;33219;47.410;9.730;2023-02-28T00:48:31;-1.90;99.90
47482;DHT22;33219;47.410;9.730;2023-02-28T00:50:59;-1.90;99.90
47482;DHT22;33219;47.410;9.730;2023-02-28T00:53:26;-2.00;99.90
47482;DHT22;33219;47.410;9.730;2023-02-28T00:55:54;-2.00;99.90
47482;DHT22;33219;47.410;9.730;2023-02-28T00:58:21;-2.00;99.90
47482;DHT22;33219;47.410;9.730;2023-02-28T01:00:50;-2.00;99.90
47482;DHT22;33219;47.410;9.730;2023-02-28T01:03:21;-2.00;99.90
47482;DHT22;33219;47.410;9.730;2023-02-28T01:05:49;-2.10;99.90
47482;DHT22;33219;47.410;9.730;2023-02-28T01:08:17;-2.10;99.90
47482;DHT22;33219;47.410;9.730;2023-02-28T01:10:44;-2.10;99.90
47482;DHT22;33219;47.410;9.730;2023-02-28T01:13:12;-2.10;99.90
47482;DHT22;33219;47.410;9.730;2023-02-28T01:15:51;-2.10;99.90
47482;DHT22;33219;47.410;9.730;2023-02-28T01:18:20;-2.10;99.90
47482;DHT22;33219;47.410;9.730;2023-02-28T01:20:48;-2.20;99.90
47482;DHT22;33219;47.410;9.730;2023-02-28T01:23:18;-2.20;99.90
47482;DHT22;33219;47.410;9.730;2023-02-28T01:25:46;-2.20;99.90
47482;DHT22;33219;47.410;9.730;2023-02-28T01:28:14;-2.20;99.90
47482;DHT22;33219;47.410;9.730;2023-02-28T01:30:41;-2.30;99.90
47482;DHT22;33219;47.410;9.730;2023-02-28T01:33:09;-2.30;99.90
47482;DHT22;33219;47.410;9.730;2023-02-28T01:35:37;-2.30;99.90
47482;DHT22;33219;47.410;9.730;2023-02-28T01:38:04;-2.40;99.90
47482;DHT22;33219;47.410;9.730;2023-02-28T01:40:32;-2.50;99.90
47482;DHT22;33219;47.410;9.730;2023-02-28T01:42:59;-2.50;99.90
47482;DHT22;33219;47.410;9.730;2023-02-28T01:45:30;-2.50;99.90
47482;DHT22;33219;47.410;9.730;2023-02-28T01:48:03;-2.50;99.90
47482;DHT22;33219;47.410;9.730;2023-02-28T01:50:34;-2.60;99.90
47482;DHT22;33219;47.410;9.730;2023-02-28T01:53:04;-2.60;99.90
47482;DHT22;33219;47.410;9.730;2023-02-28T01:55:36;-2.60;99.90
47482;DHT22;33219;47.410;9.730;2023-02-28T01:58:06;-2.70;99.90
47482;DHT22;33219;47.410;9.730;2023-02-28T02:00:35;-2.70;99.90
47482;DHT22;33219;47.410;9.730;2023-02-28T02:03:08;-2.70;99.90
47482;DHT22;33219;47.410;9.730;2023-02-28T02:05:37;-2.80;99.90
47482;DHT22;33219;47.410;9.730;2023-02-28T02:08:12;-2.70;99.90
47482;DHT22;33219;47.410;9.730;2023-02-28T02:10:48;-2.70;99.90
47482;DHT22;33219;47.410;9.730;2023-02-28T02:16:20;-2.70;99.90
47482;DHT22;33219;47.410;9.730;2023-02-28T02:24:36;-2.80;99.90
47482;DHT22;33219;47.410;9.730;2023-02-28T02:35:13;-2.70;99.90
47482;DHT22;33219;47.410;9.730;2023-02-28T02:40:30;-2.70;99.90
47482;DHT22;33219;47.410;9.730;2023-02-28T02:43:01;-2.60;99.90
47482;DHT22;33219;47.410;9.730;2023-02-28T02:45:35;-2.60;99.90
47482;DHT22;33219;47.410;9.730;2023-02-28T02:48:05;-2.50;99.90
47482;DHT22;33219;47.410;9.730;2023-02-28T02:50:38;-2.50;99.90
47482;DHT22;33219;47.410;9.730;2023-02-28T02:53:07;-2.50;99.90
47482;DHT22;33219;47.410;9.730;2023-02-28T02:55:38;-2.50;99.90
47482;DHT22;33219;47.410;9.730;2023-02-28T02:58:08;-2.50;99.90
47482;DHT22;33219;47.410;9.730;2023-02-28T03:00:42;-2.50;99.90
47482;DHT22;33219;47.410;9.730;2023-02-28T03:03:12;-2.50;99.90
47482;DHT22;33219;47.410;9.730;2023-02-28T03:05:48;-2.40;99.90
47482;DHT22;33219;47.410;9.730;2023-02-28T03:08:17;-2.30;99.90
47482;DHT22;33219;47.410;9.730;2023-02-28T03:10:47;-2.30;99.90
47482;DHT22;33219;47.410;9.730;2023-02-28T03:16:33;-2.10;99.90
47482;DHT22;33219;47.410;9.730;2023-02-28T03:18:45;-2.10;99.90
47482;DHT22;33219;47.410;9.730;2023-02-28T03:21:27;-2.00;99.90
47482;DHT22;33219;47.410;9.730;2023-02-28T03:26:48;-2.00;99.90
47482;DHT22;33219;47.410;9.730;2023-02-28T03:29:22;-2.00;99.90
47482;DHT22;33219;47.410;9.730;2023-02-28T03:31:52;-2.00;99.90
47482;DHT22;33219;47.410;9.730;2023-02-28T03:34:24;-2.00;99.90
47482;DHT22;33219;47.410;9.730;2023-02-28T03:36:53;-1.90;99.90
47482;DHT22;33219;47.410;9.730;2023-02-28T03:39:44;-2.00;99.90
47482;DHT22;33219;47.410;9.730;2023-02-28T03:42:00;-1.90;99.90
47482;DHT22;33219;47.410;9.730;2023-02-28T03:44:34;-1.90;99.90
47482;DHT22;33219;47.410;9.730;2023-02-28T03:47:13;-1.90;99.90
47482;DHT22;33219;47.410;9.730;2023-02-28T03:49:49;-1.90;99.90
47482;DHT22;33219;47.410;9.730;2023-02-28T03:52:19;-1.90;99.90
47482;DHT22;33219;47.410;9.730;2023-02-28T03:54:50;-1.90;99.90
47482;DHT22;33219;47.410;9.730;2023-02-28T04:00:19;-1.80;99.90
47482;DHT22;33219;47.410;9.730;2023-02-28T04:02:48;-1.80;99.90
47482;DHT22;33219;47.410;9.730;2023-02-28T04:05:19;-1.80;99.90
47482;DHT22;33219;47.410;9.730;2023-02-28T04:07:46;-1.80;99.90
47482;DHT22;33219;47.410;9.730;2023-02-28T04:10:15;-1.80;99.90
47482;DHT22;33219;47.410;9.730;2023-02-28T04:12:43;-1.80;99.90
47482;DHT22;33219;47.410;9.730;2023-02-28T04:15:10;-1.80;99.90
47482;DHT22;33219;47.410;9.730;2023-02-28T04:17:41;-1.80;99.90
47482;DHT22;33219;47.410;9.730;2023-02-28T04:20:09;-1.80;99.90
47482;DHT22;33219;47.410;9.730;2023-02-28T04:22:38;-1.80;99.90
47482;DHT22;33219;47.410;9.730;2023-02-28T04:25:06;-1.80;99.90
47482;DHT22;33219;47.410;9.730;2023-02-28T04:27:34;-1.70;99.90
47482;DHT22;33219;47.410;9.730;2023-02-28T04:30:02;-1.70;99.90
47482;DHT22;33219;47.410;9.730;2023-02-28T04:32:30;-1.70;99.90
47482;DHT22;33219;47.410;9.730;2023-02-28T04:34:57;-1.60;99.90
47482;DHT22;33219;47.410;9.730;2023-02-28T04:37:25;-1.60;99.90
47482;DHT22;33219;47.410;9.730;2023-02-28T04:39:54;-1.50;99.90
47482;DHT22;33219;47.410;9.730;2023-02-28T04:42:22;-1.50;99.90
47482;DHT22;33219;47.410;9.730;2023-02-28T04:44:49;-1.50;99.90
47482;DHT22;33219;47.410;9.730;2023-02-28T04:47:17;-1.40;99.90
47482;DHT22;33219;47.410;9.730;2023-02-28T04:49:44;-1.40;99.90
47482;DHT22;33219;47.410;9.730;2023-02-28T04:52:12;-1.40;99.90
47482;DHT22;33219;47.410;9.730;2023-02-28T04:54:39;-1.50;99.90
47482;DHT22;33219;47.410;9.730;2023-02-28T04:57:07;-1.40;99.90
47482;DHT22;33219;47.410;9.730;2023-02-28T04:59:34;-1.50;99.90
47482;DHT22;33219;47.410;9.730;2023-02-28T05:02:02;-1.50;99.90
47482;DHT22;33219;47.410;9.730;2023-02-28T05:04:36;-1.50;99.90
47482;DHT22;33219;47.410;9.730;2023-02-28T05:07:02;-1.50;99.90
47482;DHT22;33219;47.410;9.730;2023-02-28T05:09:30;-1.60;99.90
47482;DHT22;33219;47.410;9.730;2023-02-28T05:11:59;-1.60;99.90
47482;DHT22;33219;47.410;9.730;2023-02-28T05:14:26;-1.60;99.90
47482;DHT22;33219;47.410;9.730;2023-02-28T05:16:54;-1.70;99.90
47482;DHT22;33219;47.410;9.730;2023-02-28T05:19:22;-1.70;99.90
47482;DHT22;33219;47.410;9.730;2023-02-28T05:21:55;-1.80;99.90
47482;DHT22;33219;47.410;9.730;2023-02-28T05:24:23;-1.80;99.90
47482;DHT22;33219;47.410;9.730;2023-02-28T05:26:52;-1.80;99.90
47482;DHT22;33219;47.410;9.730;2023-02-28T05:29:20;-1.90;99.90
47482;DHT22;33219;47.410;9.730;2023-02-28T05:31:48;-1.90;99.90
47482;DHT22;33219;47.410;9.730;2023-02-28T05:34:16;-1.90;99.90
47482;DHT22;33219;47.410;9.730;2023-02-28T05:36:44;-2.00;99.90
47482;DHT22;33219;47.410;9.730;2023-02-28T05:39:11;-2.10;99.90
47482;DHT22;33219;47.410;9.730;2023-02-28T05:41:41;-2.10;99.90
47482;DHT22;33219;47.410;9.730;2023-02-28T05:44:09;-2.20;99.90
47482;DHT22;33219;47.410;9.730;2023-02-28T05:46:37;-2.30;99.90
47482;DHT22;33219;47.410;9.730;2023-02-28T05:49:05;-2.30;99.90
47482;DHT22;33219;47.410;9.730;2023-02-28T05:51:32;-2.40;99.90
47482;DHT22;33219;47.410;9.730;2023-02-28T05:54:02;-2.40;99.90
47482;DHT22;33219;47.410;9.730;2023-02-28T05:56:30;-2.40;99.90
47482;DHT22;33219;47.410;9.730;2023-02-28T05:58:57;-2.40;99.90
47482;DHT22;33219;47.410;9.730;2023-02-28T06:04:06;-2.50;99.90
47482;DHT22;33219;47.410;9.730;2023-02-28T06:06:34;-2.60;99.90
47482;DHT22;33219;47.410;9.730;2023-02-28T06:09:04;-2.60;99.90
47482;DHT22;33219;47.410;9.730;2023-02-28T06:11:32;-2.60;99.90
47482;DHT22;33219;47.410;9.730;2023-02-28T06:14:01;-2.70;99.90
47482;DHT22;33219;47.410;9.730;2023-02-28T06:16:29;-2.70;99.90
47482;DHT22;33219;47.410;9.730;2023-02-28T06:18:58;-2.70;99.90
47482;DHT22;33219;47.410;9.730;2023-02-28T06:21:26;-2.60;99.90
47482;DHT22;33219;47.410;9.730;2023-02-28T06:24:07;-2.50;99.90
47482;DHT22;33219;47.410;9.730;2023-02-28T06:26:36;-2.50;99.90
47482;DHT22;33219;47.410;9.730;2023-02-28T06:29:00;-2.40;99.90
47482;DHT22;33219;47.410;9.730;2023-02-28T06:31:33;-2.40;99.90
47482;DHT22;33219;47.410;9.730;2023-02-28T06:39:53;-2.20;99.90
47482;DHT22;33219;47.410;9.730;2023-02-28T06:42:41;-2.20;99.90
47482;DHT22;33219;47.410;9.730;2023-02-28T06:45:12;-2.10;99.90
47482;DHT22;33219;47.410;9.730;2023-02-28T06:50:35;-2.10;99.90
47482;DHT22;33219;47.410;9.730;2023-02-28T06:53:13;-2.00;99.90
47482;DHT22;33219;47.410;9.730;2023-02-28T06:56:11;-2.00;99.90
47482;DHT22;33219;47.410;9.730;2023-02-28T06:58:40;-1.80;99.90
47482;DHT22;33219;47.410;9.730;2023-02-28T07:04:53;-1.30;99.90
47482;DHT22;33219;47.410;9.730;2023-02-28T07:07:48;-0.90;99.90
47482;DHT22;33219;47.410;9.730;2023-02-28T07:13:42;-0.40;99.90
47482;DHT22;33219;47.410;9.730;2023-02-28T07:26:50;0.40;99.90
47482;DHT22;33219;47.410;9.730;2023-02-28T07:43:07;1.60;99.90
47482;DHT22;33219;47.410;9.730;2023-02-28T07:49:30;1.30;99.90
47482;DHT22;33219;47.410;9.730;2023-02-28T07:58:29;1.20;99.90
47482;DHT22;33219;47.410;9.730;2023-02-28T08:01:35;1.00;99.90
47482;DHT22;33219;47.410;9.730;2023-02-28T08:07:26;0.90;99.90
47482;DHT22;33219;47.410;9.730;2023-02-28T09:08:17;4.50;95.00
47482;DHT22;33219;47.410;9.730;2023-02-28T09:20:51;6.00;89.80
47482;DHT22;33219;47.410;9.730;2023-02-28T09:33:30;5.30;88.90
47482;DHT22;33219;47.410;9.730;2023-02-28T09:36:18;5.30;90.20
47482;DHT22;33219;47.410;9.730;2023-02-28T09:39:06;5.10;90.70
47482;DHT22;33219;47.410;9.730;2023-02-28T09:41:39;5.10;90.20
47482;DHT22;33219;47.410;9.730;2023-02-28T09:44:36;5.30;90.20
47482;DHT22;33219;47.410;9.730;2023-02-28T09:47:18;5.60;89.70
47482;DHT22;33219;47.410;9.730;2023-02-28T09:52:28;4.60;90.90
47482;DHT22;33219;47.410;9.730;2023-02-28T10:04:33;4.90;90.60
47482;DHT22;33219;47.410;9.730;2023-02-28T10:19:22;4.70;91.10
47482;DHT22;33219;47.410;9.730;2023-02-28T10:24:53;4.50;91.00
47482;DHT22;33219;47.410;9.730;2023-02-28T10:27:34;4.20;91.70
47482;DHT22;33219;47.410;9.730;2023-02-28T10:30:35;4.00;92.40
47482;DHT22;33219;47.410;9.730;2023-02-28T10:33:31;4.10;91.90
47482;DHT22;33219;47.410;9.730;2023-02-28T10:49:53;3.30;93.30
47482;DHT22;33219;47.410;9.730;2023-02-28T11:01:53;4.20;94.10
47482;DHT22;33219;47.410;9.730;2023-02-28T11:04:47;4.20;94.00
47482;DHT22;33219;47.410;9.730;2023-02-28T11:07:50;4.10;94.20
47482;DHT22;33219;47.410;9.730;2023-02-28T11:10:33;4.30;94.60
47482;DHT22;33219;47.410;9.730;2023-02-28T11:20:17;4.40;93.60
47482;DHT22;33219;47.410;9.730;2023-02-28T11:22:57;4.40;93.90
47482;DHT22;33219;47.410;9.730;2023-02-28T11:29:23;5.20;94.00
47482;DHT22;33219;47.410;9.730;2023-02-28T11:32:24;5.20;91.80
47482;DHT22;33219;47.410;9.730;2023-02-28T11:41:30;5.30;91.80
47482;DHT22;33219;47.410;9.730;2023-02-28T11:47:01;4.80;92.70
47482;DHT22;33219;47.410;9.730;2023-02-28T11:52:42;4.60;92.60
47482;DHT22;33219;47.410;9.730;2023-02-28T11:55:25;4.50;93.20
47482;DHT22;33219;47.410;9.730;2023-02-28T12:00:56;4.60;92.80
47482;DHT22;33219;47.410;9.730;2023-02-28T12:11:40;5.20;92.30
47482;DHT22;33219;47.410;9.730;2023-02-28T12:20:09;5.10;92.00
47482;DHT22;33219;47.410;9.730;2023-02-28T12:23:04;5.40;92.10
47482;DHT22;33219;47.410;9.730;2023-02-28T12:25:49;5.60;91.70
47482;DHT22;33219;47.410;9.730;2023-02-28T12:33:42;5.40;92.30
47482;DHT22;33219;47.410;9.730;2023-02-28T13:20:47;6.00;91.60
47482;DHT22;33219;47.410;9.730;2023-02-28T13:35:43;5.30;92.60
47482;DHT22;33219;47.410;9.730;2023-02-28T13:38:33;5.20;92.60
47482;DHT22;33219;47.410;9.730;2023-02-28T14:11:15;5.40;92.40
47482;DHT22;33219;47.410;9.730;2023-02-28T14:16:54;5.30;92.10
47482;DHT22;33219;47.410;9.730;2023-02-28T14:19:34;5.10;93.10
47482;DHT22;33219;47.410;9.730;2023-02-28T14:22:49;5.10;93.60
47482;DHT22;33219;47.410;9.730;2023-02-28T14:30:29;5.10;92.80
47482;DHT22;33219;47.410;9.730;2023-02-28T14:33:24;5.00;93.00
47482;DHT22;33219;47.410;9.730;2023-02-28T14:35:58;5.00;93.30
47482;DHT22;33219;47.410;9.730;2023-02-28T14:38:32;4.90;93.50
47482;DHT22;33219;47.410;9.730;2023-02-28T14:41:03;4.90;93.30
47482;DHT22;33219;47.410;9.730;2023-02-28T14:43:30;4.70;93.90
47482;DHT22;33219;47.410;9.730;2023-02-28T14:46:04;4.80;93.40
47482;DHT22;33219;47.410;9.730;2023-02-28T14:48:33;4.90;93.20
47482;DHT22;33219;47.410;9.730;2023-02-28T14:51:02;5.00;93.10
47482;DHT22;33219;47.410;9.730;2023-02-28T14:53:35;4.80;93.30
47482;DHT22;33219;47.410;9.730;2023-02-28T14:56:01;4.70;93.70
47482;DHT22;33219;47.410;9.730;2023-02-28T14:58:31;4.80;94.00
47482;DHT22;33219;47.410;9.730;2023-02-28T15:01:01;4.80;93.60
47482;DHT22;33219;47.410;9.730;2023-02-28T15:03:37;4.70;93.80
47482;DHT22;33219;47.410;9.730;2023-02-28T15:06:12;4.80;93.70
47482;DHT22;33219;47.410;9.730;2023-02-28T15:08:37;4.80;93.50
47482;DHT22;33219;47.410;9.730;2023-02-28T15:11:20;4.60;94.00
47482;DHT22;33219;47.410;9.730;2023-02-28T15:13:53;4.40;94.30
47482;DHT22;33219;47.410;9.730;2023-02-28T15:16:31;4.60;94.20
47482;DHT22;33219;47.410;9.730;2023-02-28T15:19:02;4.20;95.00
47482;DHT22;33219;47.410;9.730;2023-02-28T15:21:38;4.20;94.60
47482;DHT22;33219;47.410;9.730;2023-02-28T15:24:15;4.20;94.50
47482;DHT22;33219;47.410;9.730;2023-02-28T15:26:46;4.10;95.20
47482;DHT22;33219;47.410;9.730;2023-02-28T15:29:19;4.10;95.60
47482;DHT22;33219;47.410;9.730;2023-02-28T15:31:49;3.90;95.80
47482;DHT22;33219;47.410;9.730;2023-02-28T15:34:40;3.80;95.60
47482;DHT22;33219;47.410;9.730;2023-02-28T15:37:26;3.70;96.20
47482;DHT22;33219;47.410;9.730;2023-02-28T15:39:58;3.70;96.10
47482;DHT22;33219;47.410;9.730;2023-02-28T15:42:28;3.60;96.30
47482;DHT22;33219;47.410;9.730;2023-02-28T15:44:56;3.60;96.70
47482;DHT22;33219;47.410;9.730;2023-02-28T15:47:26;3.60;96.20
47482;DHT22;33219;47.410;9.730;2023-02-28T15:49:59;3.60;96.40
47482;DHT22;33219;47.410;9.730;2023-02-28T15:52:42;3.50;96.20
47482;DHT22;33219;47.410;9.730;2023-02-28T15:55:21;3.60;96.80
47482;DHT22;33219;47.410;9.730;2023-02-28T15:57:57;3.50;97.10
47482;DHT22;33219;47.410;9.730;2023-02-28T16:00:27;3.50;97.20
47482;DHT22;33219;47.410;9.730;2023-02-28T16:02:55;3.40;96.80
47482;DHT22;33219;47.410;9.730;2023-02-28T16:05:28;3.40;97.40
47482;DHT22;33219;47.410;9.730;2023-02-28T16:07:59;3.30;97.10
47482;DHT22;33219;47.410;9.730;2023-02-28T16:10:29;3.20;97.30
47482;DHT22;33219;47.410;9.730;2023-02-28T16:12:57;3.10;97.80
47482;DHT22;33219;47.410;9.730;2023-02-28T16:15:27;3.00;97.80
47482;DHT22;33219;47.410;9.730;2023-02-28T16:17:56;2.90;98.00
47482;DHT22;33219;47.410;9.730;2023-02-28T16:20:26;2.90;98.40
47482;DHT22;33219;47.410;9.730;2023-02-28T16:22:54;3.00;98.10
47482;DHT22;33219;47.410;9.730;2023-02-28T16:25:29;3.00;97.90
47482;DHT22;33219;47.410;9.730;2023-02-28T16:27:56;2.80;98.20
47482;DHT22;33219;47.410;9.730;2023-02-28T16:30:27;2.80;98.30
47482;DHT22;33219;47.410;9.730;2023-02-28T16:32:57;2.60;98.70
47482;DHT22;33219;47.410;9.730;2023-02-28T16:35:25;2.60;99.00
47482;DHT22;33219;47.410;9.730;2023-02-28T16:37:53;2.60;99.10
47482;DHT22;33219;47.410;9.730;2023-02-28T16:40:25;2.40;99.50
47482;DHT22;33219;47.410;9.730;2023-02-28T16:42:57;2.30;99.80
47482;DHT22;33219;47.410;9.730;2023-02-28T16:45:28;2.20;99.90
47482;DHT22;33219;47.410;9.730;2023-02-28T16:47:56;2.20;99.90
47482;DHT22;33219;47.410;9.730;2023-02-28T16:50:29;2.10;99.90
47482;DHT22;33219;47.410;9.730;2023-02-28T16:52:57;2.10;99.90
47482;DHT22;33219;47.410;9.730;2023-02-28T16:55:25;2.10;99.90
47482;DHT22;33219;47.410;9.730;2023-02-28T16:57:55;2.10;99.90
47482;DHT22;33219;47.410;9.730;2023-02-28T17:00:24;2.10;99.90
47482;DHT22;33219;47.410;9.730;2023-02-28T17:02:52;2.00;99.90
47482;DHT22;33219;47.410;9.730;2023-02-28T17:05:21;2.00;99.90
47482;DHT22;33219;47.410;9.730;2023-02-28T17:07:52;1.90;99.90
47482;DHT22;33219;47.410;9.730;2023-02-28T17:10:25;2.00;99.90
47482;DHT22;33219;47.410;9.730;2023-02-28T17:12:54;2.00;99.90
47482;DHT22;33219;47.410;9.730;2023-02-28T17:15:22;2.10;99.90
47482;DHT22;33219;47.410;9.730;2023-02-28T17:17:50;2.10;99.90
47482;DHT22;33219;47.410;9.730;2023-02-28T17:20:20;2.10;99.90
47482;DHT22;33219;47.410;9.730;2023-02-28T17:22:50;2.00;99.90
47482;DHT22;33219;47.410;9.730;2023-02-28T17:25:19;2.00;99.90
47482;DHT22;33219;47.410;9.730;2023-02-28T17:27:47;1.90;99.90
47482;DHT22;33219;47.410;9.730;2023-02-28T17:30:20;1.90;99.90
47482;DHT22;33219;47.410;9.730;2023-02-28T17:32:48;1.80;99.90
47482;DHT22;33219;47.410;9.730;2023-02-28T17:35:16;1.80;99.90
47482;DHT22;33219;47.410;9.730;2023-02-28T17:37:44;1.80;99.90
47482;DHT22;33219;47.410;9.730;2023-02-28T17:40:22;1.70;99.90
47482;DHT22;33219;47.410;9.730;2023-02-28T17:42:46;1.60;99.90
47482;DHT22;33219;47.410;9.730;2023-02-28T17:45:15;1.60;99.90
47482;DHT22;33219;47.410;9.730;2023-02-28T17:47:45;1.60;99.90
47482;DHT22;33219;47.410;9.730;2023-02-28T17:50:16;1.50;99.90
47482;DHT22;33219;47.410;9.730;2023-02-28T17:52:45;1.50;99.90
47482;DHT22;33219;47.410;9.730;2023-02-28T17:55:13;1.60;99.90
47482;DHT22;33219;47.410;9.730;2023-02-28T17:57:41;1.60;99.90
47482;DHT22;33219;47.410;9.730;2023-02-28T18:00:11;1.60;99.90
47482;DHT22;33219;47.410;9.730;2023-02-28T18:02:40;1.50;99.90
47482;DHT22;33219;47.410;9.730;2023-02-28T18:05:08;1.50;99.90
47482;DHT22;33219;47.410;9.730;2023-02-28T18:07:39;1.50;99.90
47482;DHT22;33219;47.410;9.730;2023-02-28T18:10:12;1.50;99.90
47482;DHT22;33219;47.410;9.730;2023-02-28T18:12:37;1.60;99.90
47482;DHT22;33219;47.410;9.730;2023-02-28T18:15:05;1.50;99.90
47482;DHT22;33219;47.410;9.730;2023-02-28T18:17:33;1.40;99.90
47482;DHT22;33219;47.410;9.730;2023-02-28T18:20:01;1.30;99.90
47482;DHT22;33219;47.410;9.730;2023-02-28T18:22:31;1.30;99.90
47482;DHT22;33219;47.410;9.730;2023-02-28T18:24:59;1.20;99.90
47482;DHT22;33219;47.410;9.730;2023-02-28T18:27:28;1.30;99.90
47482;DHT22;33219;47.410;9.730;2023-02-28T18:29:56;1.20;99.90
47482;DHT22;33219;47.410;9.730;2023-02-28T18:32:24;1.20;99.90
47482;DHT22;33219;47.410;9.730;2023-02-28T18:34:52;1.20;99.90
47482;DHT22;33219;47.410;9.730;2023-02-28T18:37:20;1.20;99.90
47482;DHT22;33219;47.410;9.730;2023-02-28T18:39:48;1.10;99.90
47482;DHT22;33219;47.410;9.730;2023-02-28T18:42:18;1.10;99.90
47482;DHT22;33219;47.410;9.730;2023-02-28T18:44:46;1.10;99.90
47482;DHT22;33219;47.410;9.730;2023-02-28T18:47:13;1.20;99.90
47482;DHT22;33219;47.410;9.730;2023-02-28T18:49:41;1.20;99.90
47482;DHT22;33219;47.410;9.730;2023-02-28T18:52:11;1.20;99.90
47482;DHT22;33219;47.410;9.730;2023-02-28T18:54:39;1.20;99.90
47482;DHT22;33219;47.410;9.730;2023-02-28T18:57:08;1.20;99.90
47482;DHT22;33219;47.410;9.730;2023-02-28T18:59:36;1.20;99.90
47482;DHT22;33219;47.410;9.730;2023-02-28T19:02:04;1.20;99.90
47482;DHT22;33219;47.410;9.730;2023-02-28T19:04:32;1.20;99.90
47482;DHT22;33219;47.410;9.730;2023-02-28T19:07:00;1.20;99.90
47482;DHT22;33219;47.410;9.730;2023-02-28T19:09:28;1.20;99.90
47482;DHT22;33219;47.410;9.730;2023-02-28T19:12:00;1.20;99.90
47482;DHT22;33219;47.410;9.730;2023-02-28T19:14:28;1.20;99.90
47482;DHT22;33219;47.410;9.730;2023-02-28T19:16:56;1.20;99.90
47482;DHT22;33219;47.410;9.730;2023-02-28T19:19:25;1.20;99.90
47482;DHT22;33219;47.410;9.730;2023-02-28T19:21:53;1.20;99.90
47482;DHT22;33219;47.410;9.730;2023-02-28T19:24:22;1.20;99.90
47482;DHT22;33219;47.410;9.730;2023-02-28T19:26:50;1.10;99.90
47482;DHT22;33219;47.410;9.730;2023-02-28T19:29:18;1.20;99.90
47482;DHT22;33219;47.410;9.730;2023-02-28T19:31:45;1.20;99.90
47482;DHT22;33219;47.410;9.730;2023-02-28T19:34:13;1.20;99.90
47482;DHT22;33219;47.410;9.730;2023-02-28T19:36:42;1.10;99.90
47482;DHT22;33219;47.410;9.730;2023-02-28T19:39:10;1.10;99.90
47482;DHT22;33219;47.410;9.730;2023-02-28T19:41:38;1.10;99.90
47482;DHT22;33219;47.410;9.730;2023-02-28T19:44:06;1.10;99.90
47482;DHT22;33219;47.410;9.730;2023-02-28T19:46:37;1.10;99.90
47482;DHT22;33219;47.410;9.730;2023-02-28T19:49:05;1.10;99.90
47482;DHT22;33219;47.410;9.730;2023-02-28T19:51:33;1.10;99.90
47482;DHT22;33219;47.410;9.730;2023-02-28T19:54:03;1.10;99.90
47482;DHT22;33219;47.410;9.730;2023-02-28T19:56:30;1.10;99.90
47482;DHT22;33219;47.410;9.730;2023-02-28T19:58:58;1.10;99.90
47482;DHT22;33219;47.410;9.730;2023-02-28T20:01:26;1.10;99.90
47482;DHT22;33219;47.410;9.730;2023-02-28T20:03:54;1.10;99.90
47482;DHT22;33219;47.410;9.730;2023-02-28T20:06:22;1.10;99.90
47482;DHT22;33219;47.410;9.730;2023-02-28T20:08:52;1.10;99.90
47482;DHT22;33219;47.410;9.730;2023-02-28T20:11:21;1.00;99.90
47482;DHT22;33219;47.410;9.730;2023-02-28T20:13:54;1.00;99.90
47482;DHT22;33219;47.410;9.730;2023-02-28T20:16:23;1.10;99.90
47482;DHT22;33219;47.410;9.730;2023-02-28T20:18:52;1.00;99.90
47482;DHT22;33219;47.410;9.730;2023-02-28T20:21:20;1.00;99.90
47482;DHT22;33219;47.410;9.730;2023-02-28T20:23:48;1.10;99.90
47482;DHT22;33219;47.410;9.730;2023-02-28T20:26:16;1.00;99.90
47482;DHT22;33219;47.410;9.730;2023-02-28T20:28:47;1.00;99.90
47482;DHT22;33219;47.410;9.730;2023-02-28T20:31:23;1.10;99.90
47482;DHT22;33219;47.410;9.730;2023-02-28T20:33:48;1.00;99.90
47482;DHT22;33219;47.410;9.730;2023-02-28T20:36:17;1.00;99.90
47482;DHT22;33219;47.410;9.730;2023-02-28T20:38:47;1.00;99.90
47482;DHT22;33219;47.410;9.730;2023-02-28T20:41:15;1.00;99.90
47482;DHT22;33219;47.410;9.730;2023-02-28T20:43:43;0.90;99.90
47482;DHT22;33219;47.410;9.730;2023-02-28T20:46:11;1.00;99.90
47482;DHT22;33219;47.410;9.730;2023-02-28T20:48:39;0.90;99.90
47482;DHT22;33219;47.410;9.730;2023-02-28T20:51:07;0.90;99.90
47482;DHT22;33219;47.410;9.730;2023-02-28T20:53:36;0.90;99.90
47482;DHT22;33219;47.410;9.730;2023-02-28T20:56:06;1.00;99.90
47482;DHT22;33219;47.410;9.730;2023-02-28T20:58:36;1.00;99.90
47482;DHT22;33219;47.410;9.730;2023-02-28T21:01:06;1.00;99.90
47482;DHT22;33219;47.410;9.730;2023-02-28T21:03:46;1.00;99.90
47482;DHT22;33219;47.410;9.730;2023-02-28T21:06:15;1.00;99.90
47482;DHT22;33219;47.410;9.730;2023-02-28T21:08:43;0.90;99.90
47482;DHT22;33219;47.410;9.730;2023-02-28T21:11:13;0.90;99.90
47482;DHT22;33219;47.410;9.730;2023-02-28T21:13:42;0.90;99.90
47482;DHT22;33219;47.410;9.730;2023-02-28T21:16:13;0.90;99.90
47482;DHT22;33219;47.410;9.730;2023-02-28T21:18:41;0.90;99.90
47482;DHT22;33219;47.410;9.730;2023-02-28T21:21:15;0.90;99.90
47482;DHT22;33219;47.410;9.730;2023-02-28T21:23:44;0.90;99.90
47482;DHT22;33219;47.410;9.730;2023-02-28T21:26:17;1.00;99.90
47482;DHT22;33219;47.410;9.730;2023-02-28T21:28:58;1.00;99.90
47482;DHT22;33219;47.410;9.730;2023-02-28T21:31:23;0.90;99.90
47482;DHT22;33219;47.410;9.730;2023-02-28T21:33:52;1.00;99.90
47482;DHT22;33219;47.410;9.730;2023-02-28T21:36:23;0.90;99.90
47482;DHT22;33219;47.410;9.730;2023-02-28T21:38:56;0.90;99.90
47482;DHT22;33219;47.410;9.730;2023-02-28T21:41:25;1.00;99.90
47482;DHT22;33219;47.410;9.730;2023-02-28T21:43:55;0.90;99.90
47482;DHT22;33219;47.410;9.730;2023-02-28T21:46:26;0.90;99.90
47482;DHT22;33219;47.410;9.730;2023-02-28T21:48:54;0.90;99.90
47482;DHT22;33219;47.410;9.730;2023-02-28T21:51:27;0.90;99.90
47482;DHT22;33219;47.410;9.730;2023-02-28T21:53:57;0.90;99.90
47482;DHT22;33219;47.410;9.730;2023-02-28T21:56:29;0.90;99.90
47482;DHT22;33219;47.410;9.730;2023-02-28T21:58:57;0.90;99.90
47482;DHT22;33219;47.410;9.730;2023-02-28T22:01:38;0.80;99.90